x

Orange Beach - 44 Nm Se Of Mobile, Al (42012) Wave Buoy

3:50pm - Mon 8th Feb 2016 All times are CST. -6 hours from GMT.

  • Sig Wave height 5.9ft
  • Swell Direction
  • Peak Period 6s
  • Average Period 5s
  • Wind
    29mph, 36mph gusts
  • Sea Temp 62°f
  • Air Temp 58°f
  • Sea Pressure 1011.8mb
  • Orange Beach - 44 Nm Se Of Mobile, Al
  • Orange Beach - 44 Nm Se Of Mobile, Al

More Historic Weather Station data

Upgrade to MSW Pro to gain access to the past 30 days of data for over 8000 Wavebouys and Weather Stations around the globe.

Join Pro

Comparision Forecast

View Surf forecast
   
Mon 02/08 3:50pm 6ft 6s 5s 29 36 mph 1011.8mb 62f 58f
2:50pm 6.5ft 6s 5s 34 40 mph 1011.2mb 62f 57f
1:50pm 6ft 6s 5s 31 40 mph 1011.7mb 62f 57f
12:50pm 5.5ft 6s 5s 31 40 mph 1012.2mb 62f 57f
11:50am 5ft 6s 4s 29 34 mph 1013.8mb 62f 57f
10:50am 4.5ft 5s 4s 29 34 mph 1015.3mb 62f 57f
9:50am 4ft 4s 4s 25 29 mph 1015.9mb 61f 57f
8:50am 4ft 4s 4s 25 29 mph 1016.5mb 61f 57f
7:50am 4ft 5s 4s 25 31 mph 1016.8mb 61f 56f
6:50am 4ft 6s 4s 22 25 mph 1016.9mb 60f 56f
5:50am 4.5ft 6s 4s 22 27 mph 1017.2mb 60f 55f
4:50am 4.5ft 5s 4s 20 25 mph 1017.1mb 60f 55f
3:50am 4.5ft 6s 4s 22 27 mph 1017.2mb 60f 55f
2:50am 5ft 5s 4s 25 29 mph 1017.2mb 60f 56f
1:50am 4.5ft 5s 4s 25 31 mph 1017.9mb 60f 56f
12:50am 4.5ft 5s 4s 25 29 mph 1018.4mb 60f 56f
Sun 02/07 11:50pm 4ft 5s 4s 25 29 mph 1019mb 61f 56f
10:50pm 3.5ft 4s 4s 22 27 mph 1019.4mb 61f 57f
9:50pm 2.5ft 4s 3s 20 22 mph 1019.7mb 61f 57f
8:50pm 2.5ft 4s 3s 18 22 mph 1020.2mb 61f 56f
7:50pm 2ft 3s 3s 18 22 mph 1020mb 61f 56f
6:50pm 2ft 3s 3s 16 20 mph 1019.6mb 61f 56f
5:50pm 1.6ft 3s 3s 18 22 mph 1019.2mb 61f 55f
4:50pm 1ft 3s 3s 16 18 mph 1019.1mb 62f 55f
3:50pm 1ft 3s 3s 13 16 mph 1019.1mb 62f 56f
2:50pm 1ft 3s 3s 11 13 mph 1019.4mb 62f 55f
1:50pm 0.7ft  -  3s 9 11 mph 1020.7mb 62f 53f
12:50pm 0.7ft  -  3s 2 7 mph 1022.1mb 62f 53f
11:50am 0.7ft  -  3s 7 9 mph 1023.4mb 61f 52f
10:50am 1ft 3s 3s 9 11 mph 1024.5mb 61f 50f
9:50am 1.3ft 3s 3s 11 13 mph 1024.9mb 61f 50f
8:50am 2ft 3s 3s 13 16 mph 1024.7mb 61f 49f
7:50am 1.6ft 3s 3s 18 20 mph 1024.1mb 61f 48f
6:50am 2ft 3s 3s 18 20 mph 1024.3mb 61f 49f
5:50am 1.6ft 3s 3s 20 22 mph 1023.1mb 61f 49f
4:50am 1.6ft 3s 3s 18 22 mph 1022.4mb 61f 49f
3:50am 1.6ft 3s 3s 20 22 mph 1022.3mb 61f 50f
2:50am 1.6ft 3s 3s 16 20 mph 1022.5mb 61f 51f
1:50am 2ft 3s 3s 18 22 mph 1022.7mb 61f 51f
12:50am 1.6ft 3s 3s 20 25 mph 1023.1mb 61f 53f
Sat 02/06 11:50pm 2ft 3s 3s 18 20 mph 1022.8mb 61f 53f
10:50pm 2.5ft 3s 3s 20 22 mph 1023.3mb 62f 53f
9:50pm 2.5ft 4s 3s 18 22 mph 1023.6mb 62f 53f
8:50pm 2ft 3s 3s 20 22 mph 1023.4mb 62f 54f
7:50pm 1.6ft 3s 3s 20 22 mph 1023.4mb 62f 55f
6:50pm 1.3ft 5s 3s 20 25 mph 1022.9mb 62f 55f
5:50pm 1.3ft 5s 5s 9 13 mph 1022.6mb 62f 55f
4:50pm 1.3ft 5s 5s 11 13 mph 1023.1mb 62f 54f
3:50pm 1.3ft 5s 4s 4 7 mph 1023mb 62f 54f
2:50pm 1.3ft 5s 4s 2 4 mph 1023.2mb 62f 54f
1:50pm 1.3ft 4s 4s 4 7 mph 1023.4mb 62f 53f
12:50pm 1.6ft 3s 3s 9 11 mph 1023.9mb 62f 53f
11:50am 1.6ft 3s 3s 13 16 mph 1025mb 62f 52f
10:50am 1.6ft 3s 3s 13 16 mph 1026.2mb 62f 51f
9:50am 1.6ft 5s 3s 11 13 mph 1027.8mb 62f 50f
8:50am 1.6ft 5s 3s 11 13 mph 1027.6mb 62f 49f
7:50am 1.6ft 4s 3s 11 16 mph 1027.4mb 62f 49f
6:50am 1.6ft 4s 3s 11 13 mph 1026.6mb 62f 50f
5:50am 2ft 3s 3s 13 16 mph 1026.3mb 62f 50f
4:50am 1.6ft 3s 3s 13 18 mph 1026.1mb 62f 50f
3:50am 2ft 4s 3s 13 16 mph 1026.2mb 62f 50f
2:50am 2ft 4s 3s 16 18 mph 1026.5mb 62f 51f
1:50am 2ft 3s 3s 16 18 mph 1026.8mb 62f 51f
12:50am 2ft 3s 3s 16 20 mph 1026.8mb 62f 52f
Fri 02/05 11:50pm 2ft 3s 3s 16 20 mph 1027.4mb 62f 52f
10:50pm 2ft 3s 3s 16 20 mph 1027.5mb 62f 52f
9:50pm 2ft 3s 3s 18 20 mph 1027.3mb 62f 53f
8:50pm 2ft 3s 3s 16 20 mph 1027.4mb 62f 53f
7:50pm 2ft 3s 3s 16 20 mph 1027.3mb 62f 54f
6:50pm 2ft 3s 3s 18 20 mph 1027.5mb 62f 54f
5:50pm 1.6ft 3s 3s 13 18 mph 1027.8mb 62f 54f
4:50pm 1ft 5s 3s 11 13 mph 1027.6mb 62f 55f
3:50pm 1.3ft 3s 3s 9 11 mph 1027.7mb 62f 54f
2:50pm 1.6ft 5s 3s 9 16 mph 1027.6mb 62f 52f
1:50pm 2ft 4s 3s 13 16 mph 1028.1mb 62f 51f
12:50pm 2ft 4s 4s 11 16 mph 1028.8mb 62f 49f
11:50am 2.5ft 4s 4s 13 18 mph 1030mb 62f 48f
10:50am 2.5ft 4s 4s 16 18 mph 1030.8mb 61f 46f
9:50am 2.5ft 4s 4s 20 22 mph 1031.1mb 61f 45f
8:50am 3ft 4s 4s 18 22 mph 1031.2mb 61f 44f
7:50am 3ft 4s 4s 20 25 mph 1030.6mb 62f 44f
6:50am 3ft 4s 4s 20 25 mph 1029.6mb 62f 44f
5:50am 3.5ft 4s 4s 22 27 mph 1028.8mb 62f 44f
4:50am 3.5ft 4s 4s 25 29 mph 1028.1mb 62f 45f
3:50am 3.5ft 4s 4s 25 31 mph 1027.7mb 62f 46f
2:50am 3ft 4s 4s 25 29 mph 1027.9mb 62f 46f
1:50am 3.5ft 4s 4s 27 31 mph 1028mb 62f 47f
12:50am 3.5ft 4s 4s 27 34 mph 1027.9mb 62f 48f
Thu 02/04 11:50pm 4ft 4s 4s 29 36 mph 1027.2mb 62f 49f